Time,TemperatureF,DewpointF,PressureIn,WindDirection,WindDirectionDegrees,WindSpeedMPH,WindSpeedGustMPH,Humidity,HourlyPrecipIn,Conditions,Clouds,dailyrainin,SoftwareType,DateUTC
2013-01-26 00:00:00,13.0,12.3,30.25,SW,225,0.0,0.0,97,0.00,,,-99.99,Weather View 32 v60,2013-01-26 05:00:00,
2013-01-26 00:05:00,13.0,11.8,30.25,SW,225,0.0,0.0,95,0.00,,,-99.99,Weather View 32 v60,2013-01-26 05:05:00,
2013-01-26 00:10:00,13.0,12.3,30.25,SW,225,0.0,0.0,97,0.00,,,-99.99,Weather View 32 v60,2013-01-26 05:10:00,
2013-01-26 00:15:00,13.0,12.3,30.25,SW,225,0.0,0.0,97,0.00,,,-99.99,Weather View 32 v60,2013-01-26 05:15:00,
2013-01-26 00:20:00,13.0,12.3,30.25,SW,225,0.0,0.0,97,0.00,,,-99.99,Weather View 32 v60,2013-01-26 05:20:00,
2013-01-26 00:25:00,13.0,12.5,30.25,SW,225,0.0,0.0,98,0.00,,,-99.99,Weather View 32 v60,2013-01-26 05:25:00,
2013-01-26 00:30:00,13.0,13.0,30.25,SW,225,0.0,0.0,100,0.00,,,-99.99,Weather View 32 v60,2013-01-26 05:30:00,
2013-01-26 00:35:00,13.0,13.0,30.24,SW,225,0.0,0.0,100,0.00,,,-99.99,Weather View 32 v60,2013-01-26 05:35:00,
2013-01-26 00:40:00,14.0,13.8,30.24,SW,225,0.0,0.0,99,0.00,,,-99.99,Weather View 32 v60,2013-01-26 05:40:00,
2013-01-26 00:45:00,14.0,13.8,30.24,SW,225,0.0,0.0,99,0.00,,,-99.99,Weather View 32 v60,2013-01-26 05:45:00,
2013-01-26 00:50:00,14.0,13.1,30.24,WSW,247,0.0,0.0,96,0.00,,,-99.99,Weather View 32 v60,2013-01-26 05:50:00,
2013-01-26 00:55:00,14.0,13.8,30.24,WSW,247,0.0,0.0,99,0.00,,,-99.99,Weather View 32 v60,2013-01-26 05:55:00,
2013-01-26 01:00:00,15.0,14.1,30.24,WSW,247,0.0,0.0,96,0.00,,,-99.99,Weather View 32 v60,2013-01-26 06:00:00,
2013-01-26 01:05:00,15.0,13.3,30.23,WSW,247,0.0,0.0,93,0.00,,,-99.99,Weather View 32 v60,2013-01-26 06:05:00,
2013-01-26 01:10:00,14.0,12.6,30.23,WSW,247,0.0,0.0,94,0.00,,,-99.99,Weather View 32 v60,2013-01-26 06:10:00,
2013-01-26 01:15:00,14.0,12.4,30.23,WSW,247,0.0,0.0,93,0.00,,,-99.99,Weather View 32 v60,2013-01-26 06:15:00,
2013-01-26 01:20:00,13.0,11.8,30.23,WSW,247,0.0,0.0,95,0.00,,,-99.99,Weather View 32 v60,2013-01-26 06:20:00,
2013-01-26 01:25:00,12.0,11.1,30.23,WSW,247,0.0,0.0,96,0.00,,,-99.99,Weather View 32 v60,2013-01-26 06:25:00,
2013-01-26 01:30:00,12.0,11.5,30.23,WSW,247,0.0,0.0,98,0.00,,,-99.99,Weather View 32 v60,2013-01-26 06:30:00,
2013-01-26 01:35:00,12.0,11.5,30.24,WSW,247,0.0,0.0,98,0.00,,,-99.99,Weather View 32 v60,2013-01-26 06:35:00,
2013-01-26 01:40:00,12.0,11.5,30.24,WSW,247,0.0,0.0,98,0.00,,,-99.99,Weather View 32 v60,2013-01-26 06:40:00,
2013-01-26 01:45:00,11.0,11.0,30.24,WSW,247,0.0,0.0,100,0.00,,,-99.99,Weather View 32 v60,2013-01-26 06:45:00,
2013-01-26 01:50:00,12.0,12.0,30.24,WSW,247,0.0,0.0,100,0.00,,,-99.99,Weather View 32 v60,2013-01-26 06:50:00,
2013-01-26 01:55:00,12.0,12.0,30.23,WSW,247,0.0,0.0,100,0.00,,,-99.99,Weather View 32 v60,2013-01-26 06:55:00,
2013-01-26 02:00:00,12.0,12.0,30.23,WSW,247,0.0,0.0,100,0.00,,,-99.99,Weather View 32 v60,2013-01-26 07:00:00,
2013-01-26 02:05:00,12.0,11.8,30.24,WSW,247,0.0,0.0,99,0.00,,,-99.99,Weather View 32 v60,2013-01-26 07:05:00,
2013-01-26 02:10:00,11.0,11.0,30.24,WSW,247,0.0,0.0,100,0.00,,,-99.99,Weather View 32 v60,2013-01-26 07:10:00,
2013-01-26 02:15:00,12.0,12.0,30.23,WSW,247,0.0,0.0,100,0.00,,,-99.99,Weather View 32 v60,2013-01-26 07:15:00,
2013-01-26 02:20:00,12.0,12.0,30.23,WSW,247,0.0,0.0,100,0.00,,,-99.99,Weather View 32 v60,2013-01-26 07:20:00,
2013-01-26 02:25:00,12.0,12.0,30.23,WSW,247,0.0,0.0,100,0.00,,,-99.99,Weather View 32 v60,2013-01-26 07:25:00,
2013-01-26 02:30:00,12.0,11.8,30.23,WSW,247,0.0,0.0,99,0.00,,,-99.99,Weather View 32 v60,2013-01-26 07:30:00,
2013-01-26 02:35:00,11.0,11.0,30.22,WSW,247,0.0,0.0,100,0.00,,,-99.99,Weather View 32 v60,2013-01-26 07:35:00,
2013-01-26 02:40:00,11.0,10.8,30.22,WSW,247,0.0,0.0,99,0.00,,,-99.99,Weather View 32 v60,2013-01-26 07:40:00,
2013-01-26 02:45:00,11.0,11.0,30.24,WSW,247,0.0,0.0,100,0.00,,,-99.99,Weather View 32 v60,2013-01-26 07:45:00,
2013-01-26 02:50:00,11.0,11.0,30.24,WSW,247,0.0,0.0,100,0.00,,,-99.99,Weather View 32 v60,2013-01-26 07:50:00,
2013-01-26 02:55:00,11.0,11.0,30.24,North,360,0.0,0.0,100,0.00,,,-99.99,Weather View 32 v60,2013-01-26 07:55:00,
2013-01-26 03:00:00,12.0,12.0,30.24,North,360,0.0,0.0,100,0.00,,,-99.99,Weather View 32 v60,2013-01-26 08:00:00,
2013-01-26 03:05:00,12.0,12.0,30.23,North,360,0.0,0.0,100,0.00,,,-99.99,Weather View 32 v60,2013-01-26 08:05:00,
2013-01-26 03:10:00,11.0,11.0,30.23,North,360,0.0,0.0,100,0.00,,,-99.99,Weather View 32 v60,2013-01-26 08:10:00,
2013-01-26 03:15:00,12.0,12.0,30.24,North,360,0.0,0.0,100,0.00,,,-99.99,Weather View 32 v60,2013-01-26 08:15:00,
2013-01-26 03:20:00,12.0,12.0,30.24,North,360,0.0,0.0,100,0.00,,,-99.99,Weather View 32 v60,2013-01-26 08:20:00,
2013-01-26 03:25:00,12.0,12.0,30.24,North,360,0.0,0.0,100,0.00,,,-99.99,Weather View 32 v60,2013-01-26 08:25:00,
2013-01-26 03:30:00,12.0,12.0,30.24,North,360,0.0,0.0,100,0.00,,,-99.99,Weather View 32 v60,2013-01-26 08:30:00,
2013-01-26 03:35:00,13.0,13.0,30.25,North,360,0.0,0.0,100,0.00,,,-99.99,Weather View 32 v60,2013-01-26 08:35:00,
2013-01-26 03:40:00,14.0,14.0,30.25,North,360,0.0,0.0,100,0.00,,,-99.99,Weather View 32 v60,2013-01-26 08:40:00,
2013-01-26 03:45:00,14.0,13.8,30.25,North,360,0.0,0.0,99,0.00,,,-99.99,Weather View 32 v60,2013-01-26 08:45:00,
2013-01-26 03:50:00,14.0,13.8,30.25,North,360,0.0,0.0,99,0.00,,,-99.99,Weather View 32 v60,2013-01-26 08:50:00,
2013-01-26 03:55:00,14.0,13.8,30.25,North,360,0.0,0.0,99,0.00,,,-99.99,Weather View 32 v60,2013-01-26 08:55:00,
2013-01-26 04:00:00,14.0,13.8,30.25,North,360,0.0,0.0,99,0.00,,,-99.99,Weather View 32 v60,2013-01-26 09:00:00,
2013-01-26 04:05:00,14.0,13.8,30.25,North,360,0.0,0.0,99,0.00,,,-99.99,Weather View 32 v60,2013-01-26 09:05:00,
2013-01-26 04:10:00,14.0,14.0,30.25,North,360,0.0,0.0,100,0.00,,,-99.99,Weather View 32 v60,2013-01-26 09:10:00,
2013-01-26 04:15:00,15.0,14.5,30.26,North,360,0.0,0.0,98,0.00,,,-99.99,Weather View 32 v60,2013-01-26 09:15:00,
2013-01-26 04:20:00,15.0,14.5,30.26,North,360,0.0,0.0,98,0.00,,,-99.99,Weather View 32 v60,2013-01-26 09:20:00,
2013-01-26 04:25:00,16.0,15.3,30.26,North,360,0.0,0.0,97,0.00,,,-99.99,Weather View 32 v60,2013-01-26 09:25:00,
2013-01-26 04:30:00,16.0,15.1,30.26,North,360,0.0,0.0,96,0.00,,,-99.99,Weather View 32 v60,2013-01-26 09:30:00,
2013-01-26 04:35:00,16.0,15.1,30.26,North,360,0.0,0.0,96,0.00,,,-99.99,Weather View 32 v60,2013-01-26 09:35:00,
2013-01-26 04:40:00,16.0,14.8,30.26,North,360,0.0,0.0,95,0.00,,,-99.99,Weather View 32 v60,2013-01-26 09:40:00,
2013-01-26 04:45:00,16.0,14.8,30.26,North,360,0.0,0.0,95,0.00,,,-99.99,Weather View 32 v60,2013-01-26 09:45:00,
2013-01-26 04:50:00,16.0,15.1,30.26,NNW,337,0.0,0.0,96,0.00,,,-99.99,Weather View 32 v60,2013-01-26 09:50:00,
2013-01-26 04:55:00,16.0,14.8,30.27,NNW,337,0.0,0.0,95,0.00,,,-99.99,Weather View 32 v60,2013-01-26 09:55:00,
2013-01-26 05:00:00,15.0,13.8,30.27,NNW,337,0.0,0.0,95,0.00,,,-99.99,Weather View 32 v60,2013-01-26 10:00:00,
2013-01-26 05:05:00,15.0,13.8,30.27,NNW,337,0.0,0.0,95,0.00,,,-99.99,Weather View 32 v60,2013-01-26 10:05:00,
2013-01-26 05:15:00,15.0,13.8,30.27,NNW,337,0.0,0.0,95,0.00,,,-99.99,Weather View 32 v60,2013-01-26 10:15:00,
2013-01-26 05:20:00,15.0,14.1,30.27,NNW,337,0.0,0.0,96,0.00,,,-99.99,Weather View 32 v60,2013-01-26 10:20:00,
2013-01-26 06:10:00,15.0,13.8,30.27,NNW,337,0.0,0.0,95,0.00,,,-99.99,Weather View 32 v60,2013-01-26 11:10:00,
2013-01-26 06:25:00,15.0,13.6,30.27,NNW,337,0.0,0.0,94,0.00,,,-99.99,Weather View 32 v60,2013-01-26 11:25:00,
2013-01-26 06:30:00,15.0,14.1,30.27,NNW,337,0.0,0.0,96,0.00,,,-99.99,Weather View 32 v60,2013-01-26 11:30:00,
2013-01-26 06:40:00,16.0,15.1,30.28,NNW,337,0.0,0.0,96,0.00,,,-99.99,Weather View 32 v60,2013-01-26 11:40:00,
2013-01-26 06:45:00,17.0,15.1,30.29,NNW,337,0.0,0.0,92,0.00,,,-99.99,Weather View 32 v60,2013-01-26 11:45:00,
2013-01-26 06:50:00,17.0,15.1,30.29,NW,315,0.0,0.0,92,0.00,,,-99.99,Weather View 32 v60,2013-01-26 11:50:00,
2013-01-26 06:55:00,16.0,14.3,30.28,NW,315,0.0,0.0,93,0.00,,,-99.99,Weather View 32 v60,2013-01-26 11:55:00,
2013-01-26 07:00:00,16.0,14.6,30.28,NW,315,0.0,0.0,94,0.00,,,-99.99,Weather View 32 v60,2013-01-26 12:00:00,
2013-01-26 07:10:00,16.0,14.1,30.29,NW,315,0.0,0.0,92,0.00,,,-99.99,Weather View 32 v60,2013-01-26 12:10:00,
2013-01-26 07:15:00,16.0,14.1,30.30,NW,315,0.0,0.0,92,0.00,,,-99.99,Weather View 32 v60,2013-01-26 12:15:00,
2013-01-26 07:25:00,15.0,13.8,30.31,NW,315,0.0,0.0,95,0.00,,,-99.99,Weather View 32 v60,2013-01-26 12:25:00,
2013-01-26 07:30:00,15.0,13.6,30.31,NW,315,0.0,0.0,94,0.00,,,-99.99,Weather View 32 v60,2013-01-26 12:30:00,
2013-01-26 07:40:00,15.0,13.8,30.31,West,270,0.0,0.0,95,0.00,,,-99.99,Weather View 32 v60,2013-01-26 12:40:00,
2013-01-26 07:45:00,16.0,15.3,30.32,West,270,0.0,0.0,97,0.00,,,-99.99,Weather View 32 v60,2013-01-26 12:45:00,
2013-01-26 07:50:00,16.0,14.1,30.32,West,270,0.0,0.0,92,0.00,,,-99.99,Weather View 32 v60,2013-01-26 12:50:00,
2013-01-26 07:58:00,16.0,14.6,30.32,WNW,292,0.0,0.0,94,0.00,,,-99.99,Weather View 32 v60,2013-01-26 12:58:00,
2013-01-26 08:04:00,16.0,14.8,30.32,WNW,292,0.0,0.0,95,0.00,,,-99.99,Weather View 32 v60,2013-01-26 13:04:00,
2013-01-26 08:10:00,16.0,15.1,30.32,WNW,292,0.0,0.0,96,0.00,,,-99.99,Weather View 32 v60,2013-01-26 13:10:00,
2013-01-26 08:20:00,17.0,15.3,30.33,WSW,247,0.0,3.0,93,0.00,,,-99.99,Weather View 32 v60,2013-01-26 13:20:00,
2013-01-26 08:25:00,18.0,15.8,30.32,WSW,247,0.0,3.0,91,0.00,,,-99.99,Weather View 32 v60,2013-01-26 13:25:00,
2013-01-26 08:34:00,18.0,14.3,30.32,WSW,247,0.0,3.0,85,0.00,,,-99.99,Weather View 32 v60,2013-01-26 13:34:00,
2013-01-26 08:40:00,18.0,14.5,30.32,West,270,0.0,3.0,86,0.00,,,-99.99,Weather View 32 v60,2013-01-26 13:40:00,
2013-01-26 08:45:00,17.0,14.1,30.33,West,270,0.0,3.0,88,0.00,,,-99.99,Weather View 32 v60,2013-01-26 13:45:00,
2013-01-26 08:55:00,16.0,12.8,30.33,WSW,247,0.0,6.0,87,0.00,,,-99.99,Weather View 32 v60,2013-01-26 13:55:00,
2013-01-26 09:00:00,16.0,12.8,30.33,WNW,292,1.0,6.0,87,0.00,,,-99.99,Weather View 32 v60,2013-01-26 14:00:00,
2013-01-26 09:10:00,16.0,13.1,30.33,West,270,0.0,6.0,88,0.00,,,-99.99,Weather View 32 v60,2013-01-26 14:10:00,
2013-01-26 09:15:00,16.0,13.6,30.33,West,270,0.0,6.0,90,0.00,,,-99.99,Weather View 32 v60,2013-01-26 14:15:00,
2013-01-26 09:20:00,16.0,12.6,30.33,West,270,5.0,8.0,86,0.00,,,-99.99,Weather View 32 v60,2013-01-26 14:20:00,
2013-01-26 09:25:00,16.0,12.8,30.33,West,270,0.0,8.0,87,0.00,,,-99.99,Weather View 32 v60,2013-01-26 14:25:00,
2013-01-26 09:30:00,16.0,12.8,30.33,West,270,0.0,8.0,87,0.00,,,-99.99,Weather View 32 v60,2013-01-26 14:30:00,
2013-01-26 09:40:00,17.0,13.3,30.33,WNW,292,3.0,8.0,85,0.00,,,-99.99,Weather View 32 v60,2013-01-26 14:40:00,
2013-01-26 09:50:00,17.0,12.7,30.34,West,270,5.0,8.0,83,0.00,,,-99.99,Weather View 32 v60,2013-01-26 14:50:00,
2013-01-26 09:55:00,17.0,13.3,30.34,SW,225,4.0,8.0,85,0.00,,,-99.99,Weather View 32 v60,2013-01-26 14:55:00,
2013-01-26 10:00:00,17.0,13.3,30.34,West,270,0.0,8.0,85,0.00,,,-99.99,Weather View 32 v60,2013-01-26 15:00:00,
2013-01-26 10:10:00,18.0,12.6,30.34,SW,225,1.0,9.0,79,0.00,,,-99.99,Weather View 32 v60,2013-01-26 15:10:00,
2013-01-26 10:15:00,18.0,12.0,30.34,WNW,292,1.0,9.0,77,0.00,,,-99.99,Weather View 32 v60,2013-01-26 15:15:00,
2013-01-26 10:25:00,18.0,12.6,30.34,SW,225,0.0,9.0,79,0.00,,,-99.99,Weather View 32 v60,2013-01-26 15:25:00,
2013-01-26 10:30:00,18.0,12.0,30.34,West,270,1.0,9.0,77,0.00,,,-99.99,Weather View 32 v60,2013-01-26 15:30:00,
2013-01-26 10:40:00,19.0,11.2,30.35,WNW,292,3.0,9.0,71,0.00,,,-99.99,Weather View 32 v60,2013-01-26 15:40:00,
2013-01-26 10:50:00,19.0,11.2,30.34,West,270,4.0,10.0,71,0.00,,,-99.99,Weather View 32 v60,2013-01-26 15:50:00,
2013-01-26 10:55:00,19.0,11.2,30.35,WNW,292,1.0,10.0,71,0.00,,,-99.99,Weather View 32 v60,2013-01-26 15:55:00,
2013-01-26 11:00:00,19.0,11.8,30.35,WSW,247,4.0,10.0,73,0.00,,,-99.99,Weather View 32 v60,2013-01-26 16:00:00,
2013-01-26 11:05:00,19.0,10.2,30.35,WNW,292,0.0,10.0,68,0.00,,,-99.99,Weather View 32 v60,2013-01-26 16:05:00,
2013-01-26 11:10:00,19.0,10.5,30.35,WNW,292,0.0,10.0,69,0.00,,,-99.99,Weather View 32 v60,2013-01-26 16:10:00,
2013-01-26 11:15:00,19.0,10.2,30.36,WSW,247,2.0,10.0,68,0.00,,,-99.99,Weather View 32 v60,2013-01-26 16:15:00,
2013-01-26 11:25:00,19.0,10.8,30.35,West,270,0.0,10.0,70,0.00,,,-99.99,Weather View 32 v60,2013-01-26 16:25:00,
2013-01-26 11:34:00,19.0,10.8,30.36,West,270,6.0,11.0,70,0.00,,,-99.99,Weather View 32 v60,2013-01-26 16:34:00,
2013-01-26 11:40:00,19.0,9.9,30.36,WSW,247,1.0,11.0,67,0.00,,,-99.99,Weather View 32 v60,2013-01-26 16:40:00,
2013-01-26 11:45:00,20.0,11.1,30.35,NW,315,0.0,11.0,68,0.00,,,-99.99,Weather View 32 v60,2013-01-26 16:45:00,
2013-01-26 11:50:00,21.0,10.7,30.35,NW,315,1.0,11.0,64,0.00,,,-99.99,Weather View 32 v60,2013-01-26 16:50:00,
2013-01-26 11:55:00,21.0,11.1,30.34,SW,225,4.0,11.0,65,0.00,,,-99.99,Weather View 32 v60,2013-01-26 16:55:00,
2013-01-26 12:00:00,22.0,12.0,30.34,WSW,247,0.0,11.0,65,0.00,,,-99.99,Weather View 32 v60,2013-01-26 17:00:00,
2013-01-26 12:10:00,23.0,11.6,30.33,NE,45,0.0,13.0,61,0.00,,,-99.99,Weather View 32 v60,2013-01-26 17:10:00,
2013-01-26 12:15:00,24.0,11.7,30.31,West,270,4.0,13.0,59,0.00,,,-99.99,Weather View 32 v60,2013-01-26 17:15:00,
2013-01-26 12:25:00,24.0,12.5,30.31,NW,315,4.0,13.0,61,0.00,,,-99.99,Weather View 32 v60,2013-01-26 17:25:00,
2013-01-26 12:34:00,24.0,11.4,30.30,West,270,3.0,13.0,58,0.02,,,-99.99,Weather View 32 v60,2013-01-26 17:34:00,
2013-01-26 12:40:00,25.0,11.1,30.30,West,270,0.0,13.0,55,0.02,,,-99.99,Weather View 32 v60,2013-01-26 17:40:00,
2013-01-26 12:45:00,24.0,10.2,30.30,North,360,3.0,13.0,55,0.03,,,-99.99,Weather View 32 v60,2013-01-26 17:45:00,
2013-01-26 12:55:00,24.0,11.7,30.29,SW,225,2.0,13.0,59,0.03,,,-99.99,Weather View 32 v60,2013-01-26 17:55:00,
2013-01-26 13:01:00,24.0,10.2,30.29,WSW,247,1.0,13.0,55,0.05,,,-99.99,Weather View 32 v60,2013-01-26 18:01:00,
2013-01-26 13:10:00,24.0,8.0,30.30,WSW,247,4.0,11.0,50,0.05,,,-99.99,Weather View 32 v60,2013-01-26 18:10:00,
2013-01-26 13:15:00,24.0,11.0,30.30,West,270,1.0,13.0,57,0.05,,,-99.99,Weather View 32 v60,2013-01-26 18:15:00,
2013-01-26 13:20:00,25.0,11.5,30.30,WSW,247,5.0,13.0,56,0.00,,,-99.99,Weather View 32 v60,2013-01-26 18:20:00,
2013-01-26 13:30:00,26.0,9.0,30.31,WNW,292,2.0,15.0,48,0.03,,,-99.99,Weather View 32 v60,2013-01-26 18:30:00,
2013-01-26 13:40:00,26.0,9.9,30.29,West,270,4.0,15.0,50,0.03,,,-99.99,Weather View 32 v60,2013-01-26 18:40:00,
2013-01-26 13:50:00,26.0,10.3,30.30,SW,225,0.0,16.0,51,0.02,,,-99.99,Weather View 32 v60,2013-01-26 18:50:00,
2013-01-26 13:55:00,27.0,10.8,30.29,SW,225,6.0,16.0,50,0.02,,,-99.99,Weather View 32 v60,2013-01-26 18:55:00,
2013-01-26 14:01:00,26.0,9.4,30.29,SW,225,3.0,16.0,49,0.00,,,-99.99,Weather View 32 v60,2013-01-26 19:01:00,
2013-01-26 14:10:00,27.0,10.8,30.30,NW,315,3.0,16.0,50,0.00,,,-99.99,Weather View 32 v60,2013-01-26 19:10:00,
2013-01-26 14:20:00,26.0,10.3,30.30,West,270,0.0,16.0,51,0.00,,,-99.99,Weather View 32 v60,2013-01-26 19:20:00,
2013-01-26 14:30:00,26.0,12.0,30.30,NW,315,0.0,16.0,55,0.00,,,-99.99,Weather View 32 v60,2013-01-26 19:30:00,
2013-01-26 14:35:00,27.0,10.8,30.31,West,270,4.0,16.0,50,0.00,,,-99.99,Weather View 32 v60,2013-01-26 19:35:00,
2013-01-26 14:40:00,27.0,11.3,30.31,West,270,0.0,16.0,51,0.00,,,-99.99,Weather View 32 v60,2013-01-26 19:40:00,
2013-01-26 14:45:00,27.0,9.9,30.31,NW,315,4.0,12.0,48,0.00,,,-99.99,Weather View 32 v60,2013-01-26 19:45:00,
2013-01-26 14:50:00,27.0,10.8,30.31,West,270,5.0,12.0,50,0.00,,,-99.99,Weather View 32 v60,2013-01-26 19:50:00,
2013-01-26 14:55:00,27.0,10.4,30.31,West,270,1.0,12.0,49,0.00,,,-99.99,Weather View 32 v60,2013-01-26 19:55:00,
2013-01-26 15:02:00,27.0,9.9,30.31,West,270,0.0,12.0,48,0.00,,,-99.99,Weather View 32 v60,2013-01-26 20:02:00,
2013-01-26 15:10:00,27.0,10.8,30.32,West,270,0.0,12.0,50,0.00,,,-99.99,Weather View 32 v60,2013-01-26 20:10:00,
2013-01-26 15:15:00,26.0,9.0,30.31,West,270,8.0,14.0,48,0.00,,,-99.99,Weather View 32 v60,2013-01-26 20:15:00,
2013-01-26 15:20:00,26.0,9.0,30.31,WNW,292,1.0,14.0,48,0.00,,,-99.99,Weather View 32 v60,2013-01-26 20:20:00,
2013-01-26 15:30:00,26.0,9.9,30.33,WSW,247,0.0,14.0,50,0.00,,,-99.99,Weather View 32 v60,2013-01-26 20:30:00,
2013-01-26 15:40:00,26.0,9.4,30.33,West,270,3.0,14.0,49,0.00,,,-99.99,Weather View 32 v60,2013-01-26 20:40:00,
2013-01-26 15:50:00,25.0,9.0,30.34,WSW,247,3.0,14.0,50,0.00,,,-99.99,Weather View 32 v60,2013-01-26 20:50:00,
2013-01-26 15:55:00,25.0,8.5,30.34,ENE,67,1.0,14.0,49,0.00,,,-99.99,Weather View 32 v60,2013-01-26 20:55:00,
2013-01-26 16:00:00,24.0,8.5,30.34,NW,315,4.0,14.0,51,0.00,,,-99.99,Weather View 32 v60,2013-01-26 21:00:00,
2013-01-26 16:10:00,24.0,7.6,30.34,NNW,337,0.0,14.0,49,0.00,,,-99.99,Weather View 32 v60,2013-01-26 21:10:00,
2013-01-26 16:15:00,23.0,8.0,30.35,West,270,8.0,14.0,52,0.00,,,-99.99,Weather View 32 v60,2013-01-26 21:15:00,
2013-01-26 16:25:00,23.0,8.4,30.35,WNW,292,0.0,12.0,53,0.00,,,-99.99,Weather View 32 v60,2013-01-26 21:25:00,
2013-01-26 16:30:00,22.0,8.7,30.35,WSW,247,3.0,12.0,56,0.00,,,-99.99,Weather View 32 v60,2013-01-26 21:30:00,
2013-01-26 16:40:00,22.0,7.5,30.36,WNW,292,4.0,12.0,53,0.00,,,-99.99,Weather View 32 v60,2013-01-26 21:40:00,
2013-01-26 16:50:00,22.0,7.9,30.37,West,270,3.0,12.0,54,0.00,,,-99.99,Weather View 32 v60,2013-01-26 21:50:00,
2013-01-26 16:55:00,22.0,9.1,30.38,WSW,247,0.0,12.0,57,0.00,,,-99.99,Weather View 32 v60,2013-01-26 21:55:00,
2013-01-26 17:03:00,21.0,8.9,30.38,West,270,3.0,11.0,59,0.00,,,-99.99,Weather View 32 v60,2013-01-26 22:03:00,
2013-01-26 17:10:00,21.0,8.5,30.39,West,270,5.0,11.0,58,0.00,,,-99.99,Weather View 32 v60,2013-01-26 22:10:00,
2013-01-26 17:20:00,21.0,8.2,30.39,WNW,292,0.0,11.0,57,0.00,,,-99.99,Weather View 32 v60,2013-01-26 22:20:00,
2013-01-26 17:30:00,21.0,8.5,30.40,WSW,247,3.0,11.0,58,0.00,,,-99.99,Weather View 32 v60,2013-01-26 22:30:00,
2013-01-26 17:40:00,20.0,8.7,30.40,WNW,292,0.0,11.0,61,0.00,,,-99.99,Weather View 32 v60,2013-01-26 22:40:00,
2013-01-26 17:45:00,20.0,10.1,30.41,WNW,292,0.0,11.0,65,0.00,,,-99.99,Weather View 32 v60,2013-01-26 22:45:00,
2013-01-26 17:50:00,20.0,9.4,30.41,West,270,0.0,11.0,63,0.00,,,-99.99,Weather View 32 v60,2013-01-26 22:50:00,
2013-01-26 17:55:00,20.0,9.4,30.43,WNW,292,2.0,11.0,63,0.00,,,-99.99,Weather View 32 v60,2013-01-26 22:55:00,
2013-01-26 18:03:00,20.0,9.8,30.43,WNW,292,4.0,11.0,64,0.00,,,-99.99,Weather View 32 v60,2013-01-26 23:03:00,
2013-01-26 18:10:00,20.0,10.5,30.43,WSW,247,0.0,11.0,66,0.00,,,-99.99,Weather View 32 v60,2013-01-26 23:10:00,
2013-01-26 18:15:00,19.0,10.2,30.43,WSW,247,0.0,11.0,68,0.00,,,-99.99,Weather View 32 v60,2013-01-26 23:15:00,
2013-01-26 18:25:00,19.0,9.5,30.43,West,270,0.0,11.0,66,0.00,,,-99.99,Weather View 32 v60,2013-01-26 23:25:00,
2013-01-26 18:30:00,19.0,9.5,30.43,WNW,292,2.0,11.0,66,0.00,,,-99.99,Weather View 32 v60,2013-01-26 23:30:00,
2013-01-26 18:35:00,19.0,9.5,30.43,West,270,0.0,10.0,66,0.00,,,-99.99,Weather View 32 v60,2013-01-26 23:35:00,
2013-01-26 18:40:00,19.0,9.2,30.43,WNW,292,0.0,10.0,65,0.00,,,-99.99,Weather View 32 v60,2013-01-26 23:40:00,
2013-01-26 18:50:00,19.0,9.2,30.44,WNW,292,0.0,10.0,65,0.00,,,-99.99,Weather View 32 v60,2013-01-26 23:50:00,
2013-01-26 18:55:00,18.0,8.9,30.45,WNW,292,0.0,10.0,67,0.00,,,-99.99,Weather View 32 v60,2013-01-26 23:55:00,
2013-01-26 19:00:00,18.0,9.6,30.45,WNW,292,0.0,10.0,69,0.00,,,-99.99,Weather View 32 v60,2013-01-27 00:00:00,
2013-01-26 19:10:00,17.0,10.1,30.45,WNW,292,0.0,5.0,74,0.00,,,-99.99,Weather View 32 v60,2013-01-27 00:10:00,
2013-01-26 19:20:00,18.0,9.9,30.47,WNW,292,0.0,5.0,70,0.00,,,-99.99,Weather View 32 v60,2013-01-27 00:20:00,
2013-01-26 19:25:00,17.0,9.5,30.47,WNW,292,0.0,5.0,72,0.00,,,-99.99,Weather View 32 v60,2013-01-27 00:25:00,
2013-01-26 19:30:00,18.0,11.7,30.47,WNW,292,0.0,5.0,76,0.00,,,-99.99,Weather View 32 v60,2013-01-27 00:30:00,
2013-01-26 19:40:00,18.0,10.2,30.47,WNW,292,0.0,5.0,71,0.00,,,-99.99,Weather View 32 v60,2013-01-27 00:40:00,
2013-01-26 19:50:00,17.0,9.5,30.48,WNW,292,0.0,3.0,72,0.00,,,-99.99,Weather View 32 v60,2013-01-27 00:50:00,
2013-01-26 19:55:00,17.0,9.5,30.48,WNW,292,0.0,3.0,72,0.00,,,-99.99,Weather View 32 v60,2013-01-27 00:55:00,
2013-01-26 20:00:00,17.0,9.2,30.48,West,270,0.0,3.0,71,0.00,,,-99.99,Weather View 32 v60,2013-01-27 01:00:00,
2013-01-26 20:10:00,17.0,10.1,30.48,West,270,0.0,3.0,74,0.00,,,-99.99,Weather View 32 v60,2013-01-27 01:10:00,
2013-01-26 20:15:00,17.0,10.1,30.49,West,270,0.0,3.0,74,0.00,,,-99.99,Weather View 32 v60,2013-01-27 01:15:00,
2013-01-26 20:20:00,16.0,9.8,30.49,West,270,0.0,1.0,76,0.00,,,-99.99,Weather View 32 v60,2013-01-27 01:20:00,
2013-01-26 20:30:00,16.0,10.4,30.49,West,270,0.0,1.0,78,0.00,,,-99.99,Weather View 32 v60,2013-01-27 01:30:00,
2013-01-26 20:40:00,16.0,9.8,30.49,West,270,0.0,1.0,76,0.00,,,-99.99,Weather View 32 v60,2013-01-27 01:40:00,
2013-01-26 20:45:00,16.0,10.1,30.49,West,270,0.0,1.0,77,0.00,,,-99.99,Weather View 32 v60,2013-01-27 01:45:00,
2013-01-26 20:55:00,17.0,10.7,30.50,West,270,0.0,1.0,76,0.00,,,-99.99,Weather View 32 v60,2013-01-27 01:55:00,
2013-01-26 21:00:00,16.0,9.8,30.50,West,270,0.0,0.0,76,0.00,,,-99.99,Weather View 32 v60,2013-01-27 02:00:00,
2013-01-26 21:05:00,16.0,10.1,30.50,West,270,0.0,0.0,77,0.00,,,-99.99,Weather View 32 v60,2013-01-27 02:05:00,
2013-01-26 21:15:00,16.0,10.1,30.51,West,270,0.0,0.0,77,0.00,,,-99.99,Weather View 32 v60,2013-01-27 02:15:00,
2013-01-26 21:20:00,16.0,10.4,30.51,West,270,0.0,0.0,78,0.00,,,-99.99,Weather View 32 v60,2013-01-27 02:20:00,
2013-01-26 21:25:00,16.0,10.1,30.51,West,270,0.0,0.0,77,0.00,,,-99.99,Weather View 32 v60,2013-01-27 02:25:00,
2013-01-26 21:30:00,16.0,10.1,30.51,West,270,0.0,0.0,77,0.00,,,-99.99,Weather View 32 v60,2013-01-27 02:30:00,
2013-01-26 21:35:00,16.0,10.1,30.51,West,270,0.0,0.0,77,0.00,,,-99.99,Weather View 32 v60,2013-01-27 02:35:00,
2013-01-26 21:45:00,15.0,9.4,30.51,West,270,0.0,0.0,78,0.00,,,-99.99,Weather View 32 v60,2013-01-27 02:45:00,
2013-01-26 21:55:00,15.0,9.7,30.53,West,270,0.0,0.0,79,0.00,,,-99.99,Weather View 32 v60,2013-01-27 02:55:00,
2013-01-26 22:00:00,14.0,9.5,30.53,West,270,0.0,0.0,82,0.00,,,-99.99,Weather View 32 v60,2013-01-27 03:00:00,
2013-01-26 22:06:00,15.0,10.5,30.53,West,270,0.0,0.0,82,0.00,,,-99.99,Weather View 32 v60,2013-01-27 03:06:00,
2013-01-26 22:15:00,15.0,10.5,30.54,West,270,0.0,0.0,82,0.00,,,-99.99,Weather View 32 v60,2013-01-27 03:15:00,
2013-01-26 22:20:00,16.0,11.8,30.54,West,270,0.0,0.0,83,0.00,,,-99.99,Weather View 32 v60,2013-01-27 03:20:00,
2013-01-26 22:25:00,17.0,12.2,30.54,West,270,0.0,0.0,81,0.00,,,-99.99,Weather View 32 v60,2013-01-27 03:25:00,
2013-01-26 22:34:00,16.0,10.4,30.55,West,270,0.0,0.0,78,0.00,,,-99.99,Weather View 32 v60,2013-01-27 03:34:00,
2013-01-26 22:40:00,15.0,10.0,30.55,West,270,0.0,0.0,80,0.00,,,-99.99,Weather View 32 v60,2013-01-27 03:40:00,
2013-01-26 22:50:00,16.0,10.9,30.55,West,270,0.0,0.0,80,0.00,,,-99.99,Weather View 32 v60,2013-01-27 03:50:00,
2013-01-26 22:55:00,16.0,10.6,30.55,West,270,0.0,0.0,79,0.00,,,-99.99,Weather View 32 v60,2013-01-27 03:55:00,
2013-01-26 23:00:00,15.0,9.7,30.55,West,270,0.0,0.0,79,0.00,,,-99.99,Weather View 32 v60,2013-01-27 04:00:00,
2013-01-26 23:05:00,15.0,10.0,30.55,West,270,0.0,0.0,80,0.00,,,-99.99,Weather View 32 v60,2013-01-27 04:05:00,
2013-01-26 23:10:00,15.0,9.7,30.55,West,270,0.0,0.0,79,0.00,,,-99.99,Weather View 32 v60,2013-01-27 04:10:00,
2013-01-26 23:15:00,15.0,10.0,30.55,West,270,0.0,0.0,80,0.00,,,-99.99,Weather View 32 v60,2013-01-27 04:15:00,
2013-01-26 23:20:00,14.0,9.0,30.55,West,270,0.0,0.0,80,0.00,,,-99.99,Weather View 32 v60,2013-01-27 04:20:00,
2013-01-26 23:25:00,14.0,9.5,30.57,West,270,0.0,0.0,82,0.00,,,-99.99,Weather View 32 v60,2013-01-27 04:25:00,
2013-01-26 23:30:00,14.0,9.3,30.55,West,270,0.0,0.0,81,0.00,,,-99.99,Weather View 32 v60,2013-01-27 04:30:00,
2013-01-26 23:35:00,14.0,9.3,30.56,West,270,0.0,0.0,81,0.00,,,-99.99,Weather View 32 v60,2013-01-27 04:35:00,
2013-01-26 23:40:00,14.0,9.0,30.57,West,270,0.0,0.0,80,0.00,,,-99.99,Weather View 32 v60,2013-01-27 04:40:00,
2013-01-26 23:45:00,14.0,9.8,30.56,West,270,0.0,0.0,83,0.00,,,-99.99,Weather View 32 v60,2013-01-27 04:45:00,
2013-01-26 23:50:00,14.0,9.5,30.57,West,270,0.0,0.0,82,0.00,,,-99.99,Weather View 32 v60,2013-01-27 04:50:00,
2013-01-26 23:55:00,14.0,9.5,30.56,West,270,0.0,0.0,82,0.00,,,-99.99,Weather View 32 v60,2013-01-27 04:55:00,